Terminal Aerodrome Forecast
Issued by NWS Cleveland, OH

Home | Current Version | Previous Version | Text Only | Print | Product List | Glossary On
Versions: 1 2 3 4 5 6 7 8 9 10 11 12 13 14 15 16 17 18
000
FTUS41 KCLE 290200 AAA
TAFCAK
TAF AMD
KCAK 290228Z 2902/2924 30005KT P6SM SCT030 BKN200
      TEMPO 2902/2905 BKN018
     FM290900 33004KT P6SM BKN028
     FM291700 34006KT P6SM BKN035=

USA.gov is the U.S. government's official web portal to all federal, state and local government web resources and services.